Tiempo atmosférico en la estación meteorológica de Medina De Rioseco, Valladolid (731 m.)



Fecha
DESCASC
Temp. máxima en grados centígrados (hora)
DESCASC
Temp. mínima en grados centígrados (hora)
DESCASC
Temp. media en grados centígrados
DESCASC
Racha de viento máxima en m/sg (hora)
DESCASC
Velocidad máxima media en intervalos de 10 minutos(hora)
DESCASC
Precipitaciones diarias en mm
DESCASC
Precipitaciones de 00:00 a 06:00 en mm
DESCASC
Precipitaciones de 06:00 a 12:00 en mm
DESCASC
Precipitaciones de 12:00 a 18:00 en mm
DESCASC
Precipitaciones de 18:00 a 24:00 en mm
DESCASC
22-08-2019 30.4 (18:20) 11.6 (07:20) 21 12.5 (01:40) 7.22 (00:10) 0 0 0 0 0
21-08-2019 29.6 (18:10) 12.5 (07:40) 21.1 13.61 (22:40) 8.61 (23:40) 0 0 0 0 0
20-08-2019 24.1 (17:40) 11.6 (07:50) 17.9 13.06 (13:30) 7.78 (11:30) 0 0 0 0 0
19-08-2019 23.3 (15:50) 14.4 (07:50) 18.8 14.72 (23:59) 7.22 (21:40) 0 0 0 0 0
18-08-2019 29.4 (16:10) 13 (00:00) 21.2 11.94 (16:20) 7.5 (17:00) 0 0 0 0 0
17-08-2019 34.3 (18:20) 10.2 (00:00) 22.2 9.17 (20:00) 5.83 (16:20) 0 0 0 0 0
16-08-2019 33.6 (19:10) 13.5 (00:00) 23.5 8.33 (15:40) 5.28 (14:30) 0 0 0 0 0
15-08-2019 31.3 (18:40) 13.8 (00:00) 22.5 9.44 (23:10) 5.56 (23:10) 0 0 0 0 0
14-08-2019 31.3 (18:10) 9.4 (00:00) 20.3 10 (16:00) 4.17 (16:30) 0 0 0 0 0
13-08-2019 26.4 (19:00) 8.8 (00:00) 17.6 12.5 (00:20) 7.22 (00:20) 0 0 0 0 0
12-08-2019 23.4 (18:30) 5.1 (00:00) 14.2 11.11 (23:20) 6.39 (23:59) 0 0 0 0 0
11-08-2019 25 (17:40) 12.3 (00:00) 18.7 11.39 (20:20) 7.5 (21:20) 1.6 1.6 0 0 0
10-08-2019 27.5 (17:00) 12 (00:00) 19.8 7.78 (18:20) 5.28 (18:20) 0 0 0 0 0
09-08-2019 26.6 (16:50) 14.9 (00:00) 20.8 15.28 (17:00) 8.89 (16:40) 0.6 0 0.6 0 0
08-08-2019 31.4 (17:10) 17.8 (00:00) 24.6 14.72 (18:40) 8.06 (18:40) 0.4 0 0.4 0 0
07-08-2019 27 (13:40) 14 (00:00) 20.5 11.94 (18:50) 7.22 (18:30) 0.4 0 0 0 0.4
06-08-2019 31.3 (17:20) 15.2 (00:00) 23.2 10.83 (21:00) 7.22 (21:00) 0 0 0 0 0
05-08-2019 33.1 (18:20) 14.6 (00:00) 23.8 8.33 (01:10) 4.17 (01:10) 0 0 0 0 0
04-08-2019 33.5 (17:30) 14.7 (00:00) 24.1 8.61 (16:00) 5.28 (17:30) 0 0 0 0 0
03-08-2019 34.8 (17:40) 15.7 (00:00) 25.2 8.06 (06:50) 5 (06:10) 0 0 0 0 0
02-08-2019 33.2 (17:00) 13.1 (00:00) 23.2 7.5 (02:10) 4.17 (07:50) 0 0 0 0 0
01-08-2019 31.2 (17:40) 13.5 (00:00) 22.4 11.67 (22:30) 7.22 (21:50) 0 0 0 0 0
31-07-2019 28.1 (19:00) 10.6 (00:00) 19.4 14.17 (01:00) 7.22 (00:50) 0 0 0 0 0
30-07-2019 25.8 (18:20) 6.7 (00:00) 16.2 12.22 (23:59) 6.11 (23:50) 0 0 0 0 0
29-07-2019 27.6 (16:40) 11.1 (00:00) 19.4 12.78 (16:20) 8.06 (16:20) 0 0 0 0 0
28-07-2019 27.4 (18:40) 8.2 (00:00) 17.8 9.17 (16:30) 3.89 (10:40) 0 0 0 0 0
27-07-2019 23.8 (17:10) 13.3 (00:00) 18.5 10.56 (19:10) 6.11 (19:10) 0.2 0 0.2 0 0
26-07-2019 28.3 (18:00) 16.2 (00:00) 22.3 11.11 (23:10) 6.39 (23:30) 0 0 0 0 0

Gráficas

Temp. máximas Temp. mínimas Temp. medias Precipitaciones Rachas de viento máximas Velocidades máximas media en intervalos de 10 minutos

Datos horarios

Fecha y hora oficial Temperatura (ºC) Velocidad del viento (km/h) Dirección del viento Racha (km/h) Dirección de racha Precipitación (mm) Presión (hPa) Tendencia (hPa) Humedad (%)
2019-08-24 23:00:00 21 4 Este 10 Noroeste 0 -- -- 42
2019-08-24 22:00:00 22.4 3 Noroeste 5 Oeste 0 -- -- 40
2019-08-24 21:00:00 27.3 0 Calma 4 Sur 0 -- -- 35
2019-08-24 20:00:00 32.5 4 Sudoeste 8 Oeste 0 -- -- 22
2019-08-24 19:00:00 32.1 8 Oeste 28 Noroeste 0 -- -- 21
2019-08-24 18:00:00 33.9 8 Oeste 24 Sudoeste 0 -- -- 21
2019-08-24 17:00:00 33.4 13 Oeste 26 Oeste 0 -- -- 22
2019-08-24 16:00:00 33.5 15 Oeste 29 Noroeste 0 -- -- 20
2019-08-24 15:00:00 33.8 9 Noroeste 21 Oeste 0 -- -- 20
2019-08-24 14:00:00 32.2 5 Oeste 14 Oeste 0 -- -- 22
2019-08-24 13:00:00 30.3 4 Norte 9 Oeste 0 -- -- 24
2019-08-24 12:00:00 28.1 5 Sudeste 10 Sudeste 0 -- -- 26
2019-08-24 11:00:00 25.1 2 Oeste 9 Oeste 0 -- -- 31
2019-08-24 10:00:00 21.7 6 Sudeste 12 Sudeste 0 -- -- 39
2019-08-24 09:00:00 15.5 3 Nordeste 8 Nordeste 0 -- -- 55
2019-08-24 08:00:00 12.2 6 Este 9 Este 0 -- -- 62
2019-08-24 07:00:00 12.4 4 Este 10 Nordeste 0 -- -- 62
2019-08-24 06:00:00 13.3 8 Este 10 Este 0 -- -- 60
2019-08-24 05:00:00 14.9 6 Nordeste 12 Oeste 0 -- -- 54
2019-08-24 04:00:00 16.3 7 Oeste 12 Nordeste 0 -- -- 50
2019-08-24 03:00:00 19.5 7 Nordeste 14 Nordeste 0 -- -- 41
2019-08-24 02:00:00 19.7 4 Nordeste 22 Este 0 -- -- 40
2019-08-24 01:00:00 21.4 9 Este 18 Este 0 -- -- 36
2019-08-24 00:00:00 16 5 Noroeste 8 Noroeste 0 -- -- 49
2019-08-23 23:00:00 17.8 2 Este 4 Sur 0 -- -- 48
2019-08-23 22:00:00 20.6 6 Sudeste 12 Sudeste 0 -- -- 40
2019-08-23 21:00:00 27.6 0 Calma 9 Norte 0 -- -- 33
2019-08-23 20:00:00 31.3 8 Noroeste 25 Noroeste 0 -- -- 21
2019-08-23 19:00:00 32.1 9 Noroeste 31 Oeste 0 -- -- 20
2019-08-23 18:00:00 32.8 10 Noroeste 24 Noroeste 0 -- -- 18
2019-08-23 17:00:00 32.8 11 Noroeste 26 Oeste 0 -- -- 19
2019-08-23 16:00:00 32.2 12 Noroeste 27 Noroeste 0 -- -- 17
2019-08-23 15:00:00 31.3 9 Oeste 18 Noroeste 0 -- -- 16
2019-08-23 14:00:00 30.2 6 Norte 17 Noroeste 0 -- -- 18
2019-08-23 13:00:00 27.7 6 Norte 12 Norte 0 -- -- 26
2019-08-23 12:00:00 24.7 7 Norte 14 Norte 0 -- -- 34
2019-08-23 11:00:00 21.7 6 Nordeste 12 Norte 0 -- -- 41
2019-08-23 10:00:00 17.2 5 Nordeste 11 Nordeste 0 -- -- 52
2019-08-23 09:00:00 13.2 4 Nordeste 9 Este 0 -- -- 62
2019-08-23 08:00:00 10.4 7 Nordeste 12 Nordeste 0 -- -- 70
2019-08-23 07:00:00 10.2 5 Nordeste 9 Este 0 -- -- 69
2019-08-23 06:00:00 11.5 4 Este 7 Sudeste 0 -- -- 65
2019-08-23 05:00:00 12.3 3 Este 6 Este 0 -- -- 61
2019-08-23 04:00:00 12.6 4 Nordeste 15 Nordeste -- -- -- 56
2019-08-23 03:00:00 15.3 12 Nordeste 21 Este 0 -- -- 49
2019-08-23 02:00:00 16.8 10 Nordeste 15 Este 0 -- -- 43
2019-08-23 01:00:00 17.2 6 Nordeste 13 Nordeste 0 -- -- 39
2019-08-23 00:00:00 21.4 5 Este 31 Este 0 -- -- 31
2019-08-22 23:00:00 22.8 17 Este 30 Este 0 -- -- 27
2019-08-22 22:00:00 20.3 3 Nordeste 7 Nordeste 0 -- -- 28
2019-08-22 21:00:00 26.3 4 Nordeste 10 Nordeste 0 -- -- 18
2019-08-22 20:00:00 29.1 7 Nordeste 16 Nordeste 0 -- -- 13
2019-08-22 19:00:00 30 8 Nordeste 22 Nordeste 0 -- -- 11
2019-08-22 18:00:00 30.3 10 Nordeste 23 Este 0 -- -- 12
2019-08-22 17:00:00 30.3 10 Este 27 Este 0 -- -- 15
2019-08-22 16:00:00 29.9 8 Nordeste 27 Este 0 -- -- 16
2019-08-22 15:00:00 29.2 12 Este 26 Este 0 -- -- 19
2019-08-22 14:00:00 28.1 13 Este 27 Este 0 -- -- 20
2019-08-22 13:00:00 26 13 Este 25 Nordeste 0 -- -- 23
2019-08-22 12:00:00 23.3 14 Este 26 Este 0 -- -- 32
2019-08-22 11:00:00 20.1 13 Nordeste 27 Este 0 -- -- 44
2019-08-22 10:00:00 16.9 16 Nordeste 29 Nordeste 0 -- -- 54
2019-08-22 09:00:00 14.1 13 Nordeste 25 Nordeste 0 -- -- 65
2019-08-22 08:00:00 11.8 11 Nordeste 21 Nordeste 0 -- -- 76
2019-08-22 07:00:00 11.9 14 Nordeste 22 Nordeste 0 -- -- 80
2019-08-22 06:00:00 13 6 Nordeste 26 Este 0 -- -- 80
2019-08-22 05:00:00 13.6 16 Este 26 Nordeste 0 -- -- 82
2019-08-22 04:00:00 14.3 9 Nordeste 24 Nordeste 0 -- -- 81
2019-08-22 03:00:00 15.1 11 Nordeste 40 Este 0 -- -- 80
2019-08-22 02:00:00 16.1 22 Este 45 Este 0 -- -- 77
2019-08-22 01:00:00 16.9 24 Este 44 Este 0 -- -- 74
2019-08-22 00:00:00 18.1 27 Este 46 Este 0 -- -- 70
2019-08-21 23:00:00 20.2 26 Este 49 Este 0 -- -- 63
2019-08-21 22:00:00 24.4 16 Este 32 Este 0 -- -- 38
2019-08-21 21:00:00 26.8 5 Nordeste 12 Este 0 -- -- 34
2019-08-21 20:00:00 28.6 8 Nordeste 14 Nordeste 0 -- -- 31
2019-08-21 19:00:00 29.4 7 Noroeste 13 Nordeste 0 -- -- 33
2019-08-21 18:00:00 29.4 5 Nordeste 17 Norte 0 -- -- 34
2019-08-21 17:00:00 28.8 9 Norte 18 Este 0 -- -- 37
2019-08-21 16:00:00 27.7 7 Norte 16 Nordeste 0 -- -- 41
2019-08-21 15:00:00 26.1 8 Norte 18 Nordeste 0 -- -- 46
2019-08-21 14:00:00 24.5 12 Norte 20 Norte 0 -- -- 50
2019-08-21 13:00:00 22.1 10 Este 21 Nordeste 0 -- -- 53
2019-08-21 12:00:00 19.3 12 Nordeste 24 Este 0 -- -- 60
2019-08-21 11:00:00 16.5 12 Este 23 Este 0 -- -- 69
2019-08-21 10:00:00 14.5 15 Este 27 Nordeste 0 -- -- 75
2019-08-21 09:00:00 13.8 15 Este 30 Nordeste 0 -- -- 77
2019-08-21 08:00:00 12.6 13 Nordeste 22 Este 0 -- -- 80
2019-08-21 07:00:00 12.7 11 Nordeste 25 Este 0 -- -- 80
2019-08-21 06:00:00 12.9 12 Nordeste 24 Este 0 -- -- 79
2019-08-21 05:00:00 13.2 13 Nordeste 29 Nordeste 0 -- -- 77
2019-08-21 04:00:00 13.5 10 Nordeste 33 Este 0 -- -- 76
2019-08-21 03:00:00 13.9 19 Nordeste 39 Nordeste 0 -- -- 74
2019-08-21 02:00:00 14.4 19 Nordeste 40 Este 0 -- -- 72
2019-08-21 01:00:00 15 19 Nordeste 46 Nordeste 0 -- -- 69
2019-08-21 00:00:00 15.8 19 Este 42 Este 0 -- -- 63
2019-08-20 23:00:00 17 21 Este 42 Este 0 -- -- 57
2019-08-20 22:00:00 18.1 20 Este 40 Este 0 -- -- 52
2019-08-20 21:00:00 20 20 Este 37 Este 0 -- -- 46
2019-08-20 20:00:00 22.2 19 Este 37 Este 0 -- -- 41
2019-08-20 19:00:00 23.5 19 Este 38 Nordeste 0 -- -- 40
2019-08-20 18:00:00 24.1 20 Este 38 Este 0 -- -- 38
2019-08-20 17:00:00 23.9 21 Este 41 Este 0 -- -- 40
2019-08-20 16:00:00 23.3 20 Este 45 Este 0 -- -- 41
2019-08-20 15:00:00 22.8 22 Este 39 Este 0 -- -- 44
2019-08-20 14:00:00 22 23 Este 47 Este 0 -- -- 47
2019-08-20 13:00:00 20.7 24 Este 46 Este 0 -- -- 52
2019-08-20 12:00:00 19.5 27 Este 47 Este 0 -- -- 54
2019-08-20 11:00:00 18 27 Este 47 Este 0 -- -- 59
2019-08-20 10:00:00 16.2 22 Este 40 Este 0 -- -- 67
2019-08-20 09:00:00 14.4 16 Este 32 Este 0 -- -- 76
2019-08-20 08:00:00 11.7 9 Este 22 Este 0 -- -- 84
2019-08-20 07:00:00 12.5 11 Este 21 Este 0 -- -- 82
2019-08-20 06:00:00 13 13 Nordeste 35 Este 0 -- -- 79
2019-08-20 05:00:00 14 19 Nordeste 46 Nordeste 0 -- -- 76
2019-08-20 04:00:00 14.4 18 Este 41 Este 0 -- -- 76
2019-08-20 03:00:00 14.7 19 Este 43 Este 0 -- -- 74
2019-08-20 02:00:00 14.9 20 Este 42 Nordeste 0 -- -- 72
2019-08-20 01:00:00 15 22 Este 44 Este 0 -- -- 72
2019-08-20 00:00:00 15.2 21 Este 53 Este 0 -- -- 73
2019-08-19 23:00:00 15.7 23 Este 45 Este 0 -- -- 70
2019-08-19 22:00:00 16.6 22 Este 43 Este 0 -- -- 66
2019-08-19 21:00:00 18 21 Este 42 Este 0 -- -- 62
2019-08-19 20:00:00 19.6 19 Este 36 Este 0 -- -- 57
2019-08-19 19:00:00 20.6 17 Este 36 Este 0 -- -- 53
2019-08-19 18:00:00 21.3 16 Este 32 Sudeste 0 -- -- 50
2019-08-19 17:00:00 22.2 14 Este 36 Nordeste 0 -- -- 48
2019-08-19 16:00:00 23.2 18 Este 41 Este 0 -- -- 46
2019-08-19 15:00:00 22.7 15 Este 31 Este 0 -- -- 47
2019-08-19 14:00:00 22.5 14 Este 31 Nordeste 0 -- -- 49
2019-08-19 13:00:00 21.5 19 Este 33 Este 0 -- -- 52
2019-08-19 12:00:00 19.2 19 Este 35 Este 0 -- -- 59
2019-08-19 11:00:00 17.7 19 Este 35 Este 0 -- -- 65
2019-08-19 10:00:00 16.5 19 Este 40 Este 0 -- -- 68
2019-08-19 09:00:00 14.8 21 Este 39 Este 0 -- -- 74
2019-08-19 08:00:00 14.4 16 Nordeste 29 Nordeste 0 -- -- 75
2019-08-19 07:00:00 14.5 14 Este 34 Este 0 -- -- 76
2019-08-19 06:00:00 14.6 15 Este 28 Nordeste 0 -- -- 75
2019-08-19 05:00:00 14.7 16 Este 32 Este 0 -- -- 75
2019-08-19 04:00:00 14.7 14 Nordeste 32 Nordeste 0 -- -- 76
2019-08-19 03:00:00 14.6 14 Nordeste 27 Este 0 -- -- 77
2019-08-19 02:00:00 14.9 10 Este 24 Este 0 -- -- 76
2019-08-19 01:00:00 15.4 11 Este 27 Este 0 -- -- 76
2019-08-19 00:00:00 16.7 16 Nordeste 33 Este 0 -- -- 71
2019-08-18 23:00:00 20.6 15 Este 31 Este 0 -- -- 58
2019-08-18 22:00:00 23.7 3 Nordeste 14 Noroeste 0 -- -- 55
2019-08-18 21:00:00 25 7 Noroeste 17 Noroeste 0 -- -- 51
2019-08-18 20:00:00 25.5 10 Norte 20 Noroeste 0 -- -- 51
2019-08-18 19:00:00 25.8 13 Noroeste 31 Noroeste 0 -- -- 51
2019-08-18 18:00:00 26.2 24 Noroeste 39 Noroeste 0 -- -- 50
2019-08-18 17:00:00 27.4 27 Noroeste 43 Oeste 0 -- -- 48
2019-08-18 16:00:00 29.1 23 Oeste 39 Oeste 0 -- -- 42
2019-08-18 15:00:00 27.9 21 Oeste 33 Oeste 0 -- -- 44
2019-08-18 14:00:00 25.8 17 Oeste 31 Oeste 0 -- -- 47
2019-08-18 13:00:00 22.7 16 Oeste 25 Oeste 0 -- -- 55
2019-08-18 12:00:00 22.1 15 Sudoeste 24 Sudoeste 0 -- -- 59
2019-08-18 11:00:00 21.3 14 Oeste 26 Oeste 0 -- -- 61
2019-08-18 10:00:00 19.9 13 Oeste 24 Oeste 0 -- -- 64
2019-08-18 09:00:00 16.7 12 Oeste 22 Oeste 0 -- -- 74
2019-08-18 08:00:00 13.3 7 Oeste 10 Sudoeste 0 -- -- 81
2019-08-18 07:00:00 14 3 Sudoeste 10 Sudoeste 0 -- -- 74
2019-08-18 06:00:00 13.4 2 Oeste 6 Sudoeste 0 -- -- 76
2019-08-18 05:00:00 13.4 0 Calma 8 Sudoeste 0 -- -- 73
2019-08-18 04:00:00 14.4 0 Calma 5 Sudoeste 0 -- -- 64
2019-08-18 03:00:00 15.4 2 Sudoeste 5 Noroeste 0 -- -- 64
2019-08-18 02:00:00 16.3 4 Oeste 5 Oeste 0 -- -- 61
2019-08-18 01:00:00 17.8 4 Oeste 8 Sudoeste 0 -- -- 52
2019-08-18 00:00:00 18.6 3 Sudoeste 7 Sur 0 -- -- 53
2019-08-17 23:00:00 20.8 0 Calma 8 Sudoeste 0 -- -- 47
2019-08-17 22:00:00 24.6 4 Oeste 14 Oeste 0 -- -- 35
2019-08-17 21:00:00 29.8 12 Oeste 26 Oeste 0 -- -- 23
2019-08-17 20:00:00 32.4 18 Oeste 33 Oeste 0 -- -- 21
2019-08-17 19:00:00 33.7 20 Oeste 31 Oeste 0 -- -- 20
2019-08-17 18:00:00 34.2 17 Oeste 28 Oeste 0 -- -- 22
2019-08-17 17:00:00 33.7 17 Oeste 33 Oeste 0 -- -- 22
2019-08-17 16:00:00 33 17 Oeste 28 Oeste 0 -- -- 23
2019-08-17 15:00:00 32.3 13 Oeste 29 Oeste 0 -- -- 24
2019-08-17 14:00:00 30.4 14 Oeste 22 Oeste 0 -- -- 26
2019-08-17 13:00:00 28.2 9 Oeste 21 Sudoeste 0 -- -- 35
2019-08-17 12:00:00 26.3 9 Oeste 17 Sudoeste 0 -- -- 36
2019-08-17 11:00:00 24.4 5 Sudoeste 9 Oeste 0 -- -- 48
2019-08-17 10:00:00 21.1 4 Sudoeste 8 Sudoeste 0 -- -- 58
2019-08-17 09:00:00 16.3 3 Noroeste 4 Oeste 0 -- -- 71
2019-08-17 08:00:00 10.3 0 Calma 4 Oeste 0 -- -- 82
2019-08-17 07:00:00 10.6 0 Calma 5 Sur 0 -- -- 80
2019-08-17 06:00:00 12 0 Calma 5 Oeste 0 -- -- 77
2019-08-17 05:00:00 12.9 2 Noroeste 5 Noroeste 0 -- -- 72
2019-08-17 04:00:00 14.3 0 Calma 5 Sudeste 0 -- -- 67
2019-08-17 03:00:00 16 0 Calma 4 Oeste 0 -- -- 64
2019-08-17 02:00:00 18.3 3 Sur 6 Sur 0 -- -- 56
2019-08-17 01:00:00 19.1 0 Calma 6 Noroeste 0 -- -- 47
2019-08-17 00:00:00 21.9 6 Noroeste 16 Noroeste 0 -- -- 38
2019-08-16 23:00:00 23.5 4 Sudoeste 25 Noroeste 0 -- -- 36
2019-08-16 22:00:00 24.1 4 Sudoeste 8 Sudoeste 0 -- -- 38
2019-08-16 21:00:00 29.7 5 Oeste 18 Noroeste 0 -- -- 25
2019-08-16 20:00:00 33.2 7 Oeste 17 Noroeste 0 -- -- 20
2019-08-16 19:00:00 33.5 10 Oeste 22 Oeste 0 -- -- 22
2019-08-16 18:00:00 33.3 14 Noroeste 27 Noroeste 0 -- -- 21
2019-08-16 17:00:00 33 14 Noroeste 28 Oeste 0 -- -- 24
2019-08-16 16:00:00 32.5 15 Noroeste 30 Oeste 0 -- -- 27
2019-08-16 15:00:00 31.8 14 Oeste 28 Oeste 0 -- -- 27
2019-08-16 14:00:00 30.5 14 Sudoeste 24 Sudoeste 0 -- -- 35
2019-08-16 13:00:00 28.2 5 Sudoeste 13 Sudoeste 0 -- -- 38
2019-08-16 12:00:00 25.6 6 Sudoeste 14 Noroeste 0 -- -- 44
2019-08-16 11:00:00 22.5 3 Norte 9 Este 0 -- -- 51
2019-08-16 10:00:00 19.3 6 Este 18 Este 0 -- -- 61
2019-08-16 09:00:00 16.3 12 Nordeste 21 Nordeste 0 -- -- 72
2019-08-16 08:00:00 13.7 8 Nordeste 14 Nordeste 0 -- -- 82
2019-08-16 07:00:00 13.5 5 Este 12 Nordeste 0 -- -- 82
2019-08-16 06:00:00 14.3 8 Nordeste 15 Nordeste 0 -- -- 79
2019-08-16 05:00:00 15.5 10 Nordeste 16 Nordeste 0 -- -- 76
2019-08-16 04:00:00 16.2 9 Este 15 Nordeste 0 -- -- 72
2019-08-16 03:00:00 17.5 9 Este 17 Este 0 -- -- 65
2019-08-16 02:00:00 18.7 8 Este 15 Este 0 -- -- 61
2019-08-16 01:00:00 19.9 7 Nordeste 18 Nordeste 0 -- -- 61
2019-08-16 00:00:00 21.4 12 Nordeste 34 Este 0 -- -- 55
2019-08-15 23:00:00 23.7 17 Este 31 Este 0 -- -- 46
2019-08-15 22:00:00 25.1 7 Nordeste 14 Este 0 -- -- 43
2019-08-15 21:00:00 28.5 4 Este 9 Sudeste 0 -- -- 36
2019-08-15 20:00:00 30.3 3 Norte 15 Noroeste 0 -- -- 32
2019-08-15 19:00:00 30.9 9 Norte 19 Nordeste 0 -- -- 32
2019-08-15 18:00:00 31.2 8 Noroeste 21 Oeste 0 -- -- 31
2019-08-15 17:00:00 30.7 10 Noroeste 32 Noroeste 0 -- -- 32
2019-08-15 16:00:00 29.6 7 Norte 20 Norte 0 -- -- 35
2019-08-15 15:00:00 28.4 7 Este 20 Nordeste 0 -- -- 39
2019-08-15 14:00:00 27.3 8 Norte 17 Norte 0 -- -- 40
2019-08-15 13:00:00 25.8 8 Nordeste 17 Este 0 -- -- 43
2019-08-15 12:00:00 24.1 6 Este 17 Este 0 -- -- 51
2019-08-15 11:00:00 22.3 9 Este 19 Nordeste 0 -- -- 60
2019-08-15 10:00:00 19.8 10 Este 20 Este 0 -- -- 70
2019-08-15 09:00:00 17.2 7 Nordeste 13 Nordeste 0 -- -- 79
2019-08-15 08:00:00 14 3 Nordeste 8 Nordeste 0 -- -- 87
2019-08-15 07:00:00 14 5 Este 12 Nordeste 0 -- -- 86
2019-08-15 06:00:00 15.5 5 Nordeste 18 Nordeste 0 -- -- 83
2019-08-15 05:00:00 16.6 8 Nordeste 18 Nordeste 0 -- -- 79
2019-08-15 04:00:00 17.2 7 Nordeste 17 Nordeste 0 -- -- 74
2019-08-15 03:00:00 17.8 7 Nordeste 15 Nordeste 0 -- -- 71
2019-08-15 02:00:00 19.5 8 Nordeste 19 Nordeste 0 -- -- 63
2019-08-15 01:00:00 22.9 12 Norte 25 Norte 0 -- -- 56
2019-08-15 00:00:00 23.6 13 Norte 26 Norte 0 -- -- 54
2019-08-14 23:00:00 25 12 Norte 24 Norte 0 -- -- 50
2019-08-14 22:00:00 23.8 3 Norte 8 Noroeste 0 -- -- 45
2019-08-14 21:00:00 29.6 3 Sudoeste 9 Oeste 0 -- -- 35
2019-08-14 20:00:00 30.7 8 Oeste 19 Noroeste 0 -- -- 32
2019-08-14 19:00:00 30.5 6 Nordeste 27 Norte 0 -- -- 33
2019-08-14 18:00:00 31.1 8 Noroeste 26 Noroeste 0 -- -- 30
2019-08-14 17:00:00 31.2 12 Noroeste 24 Noroeste 0 -- -- 27
2019-08-14 16:00:00 30.1 13 Noroeste 36 Noroeste 0 -- -- 28
2019-08-14 15:00:00 28.8 12 Oeste 21 Noroeste 0 -- -- 29
2019-08-14 14:00:00 27.4 9 Oeste 22 Oeste 0 -- -- 30
2019-08-14 13:00:00 26 5 Sudoeste 15 Oeste 0 -- -- 33
2019-08-14 12:00:00 23.3 5 Sudeste 11 Este 0 -- -- 40
2019-08-14 11:00:00 19.9 4 Norte 8 Sudeste 0 -- -- 49
2019-08-14 10:00:00 16.7 5 Nordeste 9 Nordeste 0 -- -- 60
2019-08-14 09:00:00 13.4 5 Este 9 Nordeste 0 -- -- 71
2019-08-14 08:00:00 9.9 7 Este 11 Nordeste 0 -- -- 83
2019-08-14 07:00:00 9.8 4 Este 8 Sudeste 0 -- -- 83
2019-08-14 06:00:00 10.4 2 Sudeste 15 Nordeste 0 -- -- 74
2019-08-14 05:00:00 11.2 0 Calma 10 Este 0 -- -- 72
2019-08-14 04:00:00 12.8 6 Nordeste 17 Nordeste 0 -- -- 67
2019-08-14 03:00:00 14.3 9 Nordeste 17 Norte 0 -- -- 61
2019-08-14 02:00:00 14.2 6 Nordeste 17 Nordeste 0 -- -- 51
2019-08-14 01:00:00 12.1 3 Oeste 5 Oeste 0 -- -- 56
2019-08-14 00:00:00 13.4 0 Calma 4 Norte 0 -- -- 53
2019-08-13 23:00:00 15.3 0 Calma 5 Sudeste 0 -- -- 45
2019-08-13 22:00:00 18.8 3 Sur 5 Este 0 -- -- 42
2019-08-13 21:00:00 24.6 0 Calma 11 Noroeste 0 -- -- 26
2019-08-13 20:00:00 25.8 3 Nordeste 15 Norte 0 -- -- 24
2019-08-13 19:00:00 26.4 5 Noroeste 23 Norte 0 -- -- 24
2019-08-13 18:00:00 26.2 5 Nordeste 21 Norte 0 -- -- 23
2019-08-13 17:00:00 25.4 6 Noroeste 17 Nordeste 0 -- -- 26
2019-08-13 16:00:00 24.9 8 Noroeste 16 Noroeste 0 -- -- 27
2019-08-13 15:00:00 23.6 8 Norte 19 Nordeste 0 -- -- 30
2019-08-13 14:00:00 23 10 Norte 22 Norte 0 -- -- 35
2019-08-13 13:00:00 21.1 10 Nordeste 22 Nordeste 0 -- -- 39
2019-08-13 12:00:00 19.6 10 Este 23 Este 0 -- -- 42
2019-08-13 11:00:00 17.4 13 Este 23 Este 0 -- -- 50
2019-08-13 10:00:00 14.6 13 Este 23 Nordeste 0 -- -- 63
2019-08-13 09:00:00 11.1 9 Nordeste 15 Nordeste 0 -- -- 77
2019-08-13 08:00:00 9 6 Nordeste 13 Nordeste 0 -- -- 83
2019-08-13 07:00:00 9 5 Nordeste 11 Nordeste 0 -- -- 81
2019-08-13 06:00:00 9.6 6 Nordeste 12 Nordeste 0 -- -- 78
2019-08-13 05:00:00 10.7 4 Nordeste 20 Este 0 -- -- 71
2019-08-13 04:00:00 12.2 9 Este 27 Este 0 -- -- 66
2019-08-13 03:00:00 12.7 19 Este 36 Sudeste 0 -- -- 66
2019-08-13 02:00:00 13.1 20 Este 43 Este 0 -- -- 65
2019-08-13 01:00:00 13.7 17 Este 45 Este 0 -- -- 62
2019-08-13 00:00:00 14.5 23 Este 40 Este 0 -- -- 59
2019-08-12 23:00:00 15.5 17 Este 40 Nordeste 0 -- -- 56
2019-08-12 22:00:00 17.7 18 Este 34 Este 0 -- -- 49
2019-08-12 21:00:00 20.6 12 Sudeste 24 Sudeste 0 -- -- 37
2019-08-12 20:00:00 21.2 10 Este 21 Este 0 -- -- 32
2019-08-12 19:00:00 22 10 Este 20 Nordeste 0 -- -- 31
2019-08-12 18:00:00 23.1 10 Nordeste 22 Este 0 -- -- 30
2019-08-12 17:00:00 22.9 11 Nordeste 29 Este 0 -- -- 31
2019-08-12 16:00:00 22.4 9 Este 27 Este 0 -- -- 32
2019-08-12 15:00:00 21.6 6 Este 24 Nordeste 0 -- -- 32
2019-08-12 14:00:00 21 8 Nordeste 25 Este 0 -- -- 32
2019-08-12 13:00:00 19.3 8 Norte 27 Nordeste 0 -- -- 35
2019-08-12 12:00:00 17.6 12 Norte 23 Nordeste 0 -- -- 43
2019-08-12 11:00:00 16.4 13 Nordeste 22 Nordeste 0 -- -- 48
2019-08-12 10:00:00 14 8 Nordeste 17 Nordeste 0 -- -- 60
2019-08-12 09:00:00 10 2 Oeste 5 Oeste 0 -- -- 85
2019-08-12 08:00:00 5.5 0 Calma 4 Sur 0 -- -- 91
2019-08-12 07:00:00 5.4 0 Calma 4 Sudeste 0 -- -- 89
2019-08-12 06:00:00 6.2 0 Calma 4 Noroeste 0 -- -- 88
2019-08-12 05:00:00 7.4 0 Calma 6 Sur 0 -- -- 87
2019-08-12 04:00:00 8.9 2 Sudeste 6 Nordeste 0 -- -- 81
2019-08-12 03:00:00 10.8 3 Nordeste 9 Nordeste 0 -- -- 78
2019-08-12 02:00:00 11.5 4 Este 8 Este 0 -- -- 76
2019-08-12 01:00:00 13.1 5 Nordeste 9 Nordeste 0 -- -- 70
2019-08-12 00:00:00 14.6 4 Nordeste 21 Norte 0 -- -- 66
2019-08-11 23:00:00 15.8 15 Norte 31 Noroeste 0 -- -- 55
2019-08-11 22:00:00 16.9 22 Noroeste 40 Norte 0 -- -- 49
2019-08-11 21:00:00 19.6 24 Norte 41 Norte 0 -- -- 41
2019-08-11 20:00:00 22.9 12 Oeste 28 Noroeste 0 -- -- 30
2019-08-11 19:00:00 24.6 18 Oeste 30 Oeste 0 -- -- 24
2019-08-11 18:00:00 24.8 17 Oeste 32 Noroeste 0 -- -- 27
2019-08-11 17:00:00 24.5 15 Oeste 30 Oeste 0 -- -- 31
2019-08-11 16:00:00 23.3 15 Oeste 29 Oeste 0 -- -- 38
2019-08-11 15:00:00 22.2 13 Sudoeste 25 Oeste 0 -- -- 44
2019-08-11 14:00:00 20.1 13 Oeste 24 Noroeste 0 -- -- 57
2019-08-11 13:00:00 18.6 10 Oeste 18 Oeste 0 -- -- 63
2019-08-11 12:00:00 17.1 13 Noroeste 20 Oeste 0 -- -- 74
2019-08-11 11:00:00 15.9 12 Oeste 22 Sudoeste 0 -- -- 81
2019-08-11 10:00:00 15.6 7 Sudoeste 15 Sudoeste 0 -- -- 84
2019-08-11 09:00:00 14.2 8 Nordeste 12 Nordeste 0 -- -- 85
2019-08-11 08:00:00 12.5 8 Este 21 Este 0 -- -- 90
2019-08-11 07:00:00 12.5 7 Este 14 Nordeste 0 -- -- 89
2019-08-11 06:00:00 13.4 7 Este 13 Nordeste 0.2 -- -- 88
2019-08-11 05:00:00 13.6 5 Este 15 Norte 1 -- -- 85
2019-08-11 04:00:00 14.7 5 Nordeste 15 Este 0.4 -- -- 83
2019-08-11 03:00:00 15.6 10 Este 30 Este 0 -- -- 73
2019-08-11 02:00:00 15.9 13 Este 30 Este 0 -- -- 69
2019-08-11 01:00:00 16.6 12 Este 32 Este 0 -- -- 68
2019-08-11 00:00:00 20.6 9 Nordeste 23 Norte 0 -- -- 45
2019-08-10 23:00:00 21.5 15 Noroeste 25 Noroeste 0 -- -- 40
2019-08-10 22:00:00 23.2 11 Noroeste 26 Noroeste 0 -- -- 31
2019-08-10 21:00:00 23.9 13 Oeste 21 Oeste 0 -- -- 29
2019-08-10 20:00:00 26.1 12 Oeste 24 Oeste 0 -- -- 27
2019-08-10 19:00:00 27.2 13 Oeste 28 Oeste 0 -- -- 25
2019-08-10 18:00:00 27.1 16 Oeste 27 Oeste 0 -- -- 24
2019-08-10 17:00:00 27.5 14 Oeste 26 Oeste 0 -- -- 26
2019-08-10 16:00:00 26.1 12 Oeste 23 Oeste 0 -- -- 27
2019-08-10 15:00:00 25.3 9 Noroeste 23 Oeste 0 -- -- 29
2019-08-10 14:00:00 24.2 13 Oeste 25 Oeste 0 -- -- 33
2019-08-10 13:00:00 22.4 9 Oeste 18 Noroeste 0 -- -- 42
2019-08-10 12:00:00 20.5 5 Oeste 14 Oeste 0 -- -- 51
2019-08-10 11:00:00 18.8 6 Sur 14 Oeste 0 -- -- 59
2019-08-10 10:00:00 17.4 8 Oeste 14 Oeste 0 -- -- 64
2019-08-10 09:00:00 15.5 6 Oeste 12 Oeste 0 -- -- 73
2019-08-10 08:00:00 14 5 Sudoeste 9 Oeste 0 -- -- 79
2019-08-10 07:00:00 14.2 3 Sudeste 9 Sudoeste 0 -- -- 77
2019-08-10 06:00:00 14 4 Oeste 9 Sudoeste 0 -- -- 78
2019-08-10 05:00:00 13.7 5 Sudoeste 10 Oeste 0 -- -- 78
2019-08-10 04:00:00 13.6 5 Oeste 10 Oeste 0 -- -- 78
2019-08-10 03:00:00 12.3 4 Oeste 7 Oeste 0 -- -- 80
2019-08-10 02:00:00 12.7 3 Sudoeste 7 Oeste 0 -- -- 75
2019-08-10 01:00:00 14.3 4 Sudoeste 11 Sudoeste 0 -- -- 72
2019-08-10 00:00:00 14.9 4 Sudoeste 8 Sudoeste 0 -- -- 71
2019-08-09 23:00:00 17 0 Calma 10 Oeste 0 -- -- 64
2019-08-09 22:00:00 19.2 6 Sudoeste 23 Noroeste 0 -- -- 64
2019-08-09 21:00:00 22.5 16 Noroeste 33 Noroeste 0 -- -- 42
2019-08-09 20:00:00 24.1 21 Oeste 37 Oeste 0 -- -- 36
2019-08-09 19:00:00 26.1 22 Noroeste 47 Oeste 0 -- -- 34
2019-08-09 18:00:00 26 27 Oeste 43 Oeste 0 -- -- 33
2019-08-09 17:00:00 25.7 30 Oeste 55 Oeste 0 -- -- 32
2019-08-09 16:00:00 26.2 29 Oeste 48 Oeste 0 -- -- 34
2019-08-09 15:00:00 25.8 28 Oeste 48 Oeste 0 -- -- 43
2019-08-09 14:00:00 24.1 26 Oeste 48 Oeste 0 -- -- 50
2019-08-09 13:00:00 22.7 27 Oeste 43 Oeste 0 -- -- 56
2019-08-09 12:00:00 20.3 22 Oeste 45 Oeste 0 -- -- 70
2019-08-09 11:00:00 18.6 23 Oeste 37 Oeste 0 -- -- 84
2019-08-09 10:00:00 17 19 Oeste 42 Noroeste 0.6 -- -- 91
2019-08-09 09:00:00 21.2 23 Sudoeste 41 Sudoeste 0 -- -- 73
2019-08-09 08:00:00 20.3 19 Sudoeste 32 Sudoeste 0 -- -- 73
2019-08-09 07:00:00 19.4 14 Sudoeste 24 Sudoeste 0 -- -- 76
2019-08-09 06:00:00 18.9 8 Sudoeste 12 Sudoeste 0 -- -- 77
2019-08-09 05:00:00 19.9 10 Sudoeste 19 Oeste 0 -- -- 73
2019-08-09 04:00:00 20.1 15 Sudoeste 23 Sudoeste 0 -- -- 71
2019-08-09 03:00:00 20.2 4 Sudoeste 18 Sudoeste 0 -- -- 68
2019-08-09 02:00:00 21.1 11 Sudoeste 18 Sudoeste 0 -- -- 65
2019-08-09 01:00:00 21.1 6 Sudoeste 14 Oeste 0 -- -- 65
2019-08-09 00:00:00 22.1 8 Oeste 19 Oeste 0 -- -- 61
2019-08-08 23:00:00 23.7 12 Oeste 28 Oeste 0 -- -- 57
2019-08-08 22:00:00 25.5 17 Oeste 36 Oeste 0 -- -- 50
2019-08-08 21:00:00 27.1 21 Oeste 44 Oeste 0 -- -- 45
2019-08-08 20:00:00 29.2 27 Oeste 45 Oeste 0 -- -- 40
2019-08-08 19:00:00 30.5 29 Oeste 53 Oeste 0 -- -- 39
2019-08-08 18:00:00 30.6 23 Oeste 42 Oeste 0 -- -- 39
2019-08-08 17:00:00 31.3 23 Oeste 39 Oeste 0 -- -- 42
2019-08-08 16:00:00 29.9 25 Oeste 42 Oeste 0 -- -- 44
2019-08-08 15:00:00 27.6 13 Oeste 22 Oeste 0 -- -- 52
2019-08-08 14:00:00 26.7 17 Oeste 28 Oeste 0 -- -- 53
2019-08-08 13:00:00 26.5 17 Oeste 29 Oeste 0 -- -- 56
2019-08-08 12:00:00 22.5 9 Oeste 17 Noroeste 0 -- -- 72
2019-08-08 11:00:00 19.8 5 Sudoeste 18 Oeste 0.2 -- -- 89
2019-08-08 10:00:00 19.5 17 Oeste 31 Oeste 0.2 -- -- 82
2019-08-08 09:00:00 18.9 5 Sudoeste 28 Sudoeste 0 -- -- 82
2019-08-08 08:00:00 18.4 16 Oeste 27 Sudoeste 0 -- -- 81
2019-08-08 07:00:00 18.1 4 Sur 11 Sudoeste 0 -- -- 78
2019-08-08 06:00:00 18.4 4 Sudoeste 10 Sudoeste 0 -- -- 81
2019-08-08 05:00:00 18.3 5 Sur 11 Sudoeste 0 -- -- 83
2019-08-08 04:00:00 18.3 5 Sudoeste 11 Sur 0 -- -- 83
2019-08-08 03:00:00 18.2 4 Sur 9 Sudoeste 0 -- -- 85
2019-08-08 02:00:00 18.2 0 Calma 5 Sudoeste 0 -- -- 86
2019-08-08 01:00:00 18 4 Sur 9 Sur 0 -- -- 87
2019-08-08 00:00:00 18.3 4 Sur 7 Sur 0 -- -- 85
2019-08-07 23:00:00 18.1 0 Calma 4 Sur 0 -- -- 86
2019-08-07 22:00:00 18.6 2 Sudoeste 8 Oeste 0 -- -- 82
2019-08-07 21:00:00 18.8 7 Oeste 27 Noroeste 0.4 -- -- 82
2019-08-07 20:00:00 20.2 17 Noroeste 37 Noroeste 0 -- -- 75
2019-08-07 19:00:00 22.3 18 Oeste 43 Oeste 0 -- -- 56
2019-08-07 18:00:00 25.6 19 Oeste 33 Noroeste 0 -- -- 44
2019-08-07 17:00:00 25.1 15 Noroeste 33 Noroeste 0 -- -- 44
2019-08-07 16:00:00 26 6 Noroeste 19 Noroeste 0 -- -- 40
2019-08-07 15:00:00 23.6 17 Oeste 38 Oeste 0 -- -- 51
2019-08-07 14:00:00 26.6 15 Oeste 22 Sudoeste 0 -- -- 36
2019-08-07 13:00:00 25.9 10 Sudoeste 19 Oeste 0 -- -- 39
2019-08-07 12:00:00 24.4 8 Oeste 16 Oeste 0 -- -- 43
2019-08-07 11:00:00 22.7 6 Oeste 12 Oeste 0 -- -- 50
2019-08-07 10:00:00 20.9 6 Oeste 10 Sudoeste 0 -- -- 61
2019-08-07 09:00:00 18 3 Sudoeste 5 Sur 0 -- -- 79
2019-08-07 08:00:00 14.8 0 Calma 0 Calma 0 -- -- 86
2019-08-07 07:00:00 14.1 0 Calma 0 Calma 0 -- -- 85
2019-08-07 06:00:00 15.3 0 Calma 8 Sur 0 -- -- 80
2019-08-07 05:00:00 16.4 7 Sur 10 Sur 0 -- -- 81
2019-08-07 04:00:00 17.8 3 Oeste 4 Sudoeste 0 -- -- 77
2019-08-07 03:00:00 19.2 0 Calma 5 Noroeste 0 -- -- 72
2019-08-07 02:00:00 19.8 3 Este 13 Noroeste 0 -- -- 71
2019-08-07 01:00:00 20.5 7 Noroeste 23 Este 0 -- -- 67
2019-08-07 00:00:00 22.2 6 Nordeste 13 Nordeste 0 -- -- 55
2019-08-06 23:00:00 23.2 5 Nordeste 23 Norte 0 -- -- 51
2019-08-06 22:00:00 24.2 15 Norte 37 Norte 0 -- -- 50
2019-08-06 21:00:00 26.6 26 Noroeste 39 Noroeste 0 -- -- 35
2019-08-06 20:00:00 29 21 Noroeste 31 Noroeste 0 -- -- 30
2019-08-06 19:00:00 30.4 13 Oeste 25 Oeste 0 -- -- 27
2019-08-06 18:00:00 30.6 10 Oeste 24 Oeste 0 -- -- 27
2019-08-06 17:00:00 31.1 8 Oeste 23 Oeste 0 -- -- 29
2019-08-06 16:00:00 30.8 14 Sudoeste 29 Oeste 0 -- -- 29
2019-08-06 15:00:00 29.5 11 Oeste 26 Noroeste 0 -- -- 33
2019-08-06 14:00:00 29.2 10 Oeste 29 Norte 0 -- -- 36
2019-08-06 13:00:00 27.5 12 Oeste 19 Sudoeste 0 -- -- 43
2019-08-06 12:00:00 24.8 6 Oeste 11 Sudoeste 0 -- -- 52
2019-08-06 11:00:00 23.4 5 Oeste 10 Oeste 0 -- -- 56
2019-08-06 10:00:00 20.3 5 Nordeste 9 Nordeste 0 -- -- 60
2019-08-06 09:00:00 18.3 4 Norte 8 Nordeste 0 -- -- 63
2019-08-06 08:00:00 15.4 4 Nordeste 10 Este 0 -- -- 71
2019-08-06 07:00:00 15.8 6 Nordeste 14 Nordeste 0 -- -- 69
2019-08-06 06:00:00 16.6 5 Este 11 Nordeste 0 -- -- 67
2019-08-06 05:00:00 17.1 4 Nordeste 14 Nordeste 0 -- -- 65
2019-08-06 04:00:00 17.2 8 Este 15 Este 0 -- -- 67
2019-08-06 03:00:00 18.4 7 Nordeste 14 Nordeste 0 -- -- 69
2019-08-06 02:00:00 19.7 5 Nordeste 14 Este 0 -- -- 68
2019-08-06 01:00:00 20.2 4 Nordeste 13 Nordeste 0 -- -- 56
2019-08-06 00:00:00 20.4 2 Sudoeste 10 Sudoeste 0 -- -- 51
2019-08-05 23:00:00 22 4 Sudoeste 10 Sudoeste 0 -- -- 48
2019-08-05 22:00:00 25 0 Calma 6 Oeste 0 -- -- 46
2019-08-05 21:00:00 30.7 3 Sudoeste 13 Oeste 0 -- -- 32
2019-08-05 20:00:00 32.2 8 Noroeste 20 Oeste 0 -- -- 24
2019-08-05 19:00:00 32.7 8 Oeste 22 Noroeste 0 -- -- 25
2019-08-05 18:00:00 33 12 Oeste 25 Oeste 0 -- -- 25
2019-08-05 17:00:00 32.7 10 Sudoeste 25 Noroeste 0 -- -- 29
2019-08-05 16:00:00 32.2 7 Oeste 19 Oeste 0 -- -- 31
2019-08-05 15:00:00 30.4 4 Nordeste 16 Oeste 0 -- -- 33
2019-08-05 14:00:00 29.4 8 Este 26 Sudeste 0 -- -- 37
2019-08-05 13:00:00 27.3 5 Nordeste 14 Norte 0 -- -- 42
2019-08-05 12:00:00 24.9 5 Nordeste 13 Nordeste 0 -- -- 52
2019-08-05 11:00:00 23 8 Norte 14 Norte 0 -- -- 58
2019-08-05 10:00:00 20.3 8 Este 17 Este 0 -- -- 68
2019-08-05 09:00:00 17.2 7 Nordeste 12 Nordeste 0 -- -- 79
2019-08-05 08:00:00 15 4 Nordeste 10 Nordeste 0 -- -- 87
2019-08-05 07:00:00 15.3 6 Nordeste 10 Nordeste 0 -- -- 86
2019-08-05 06:00:00 15.8 3 Este 13 Este 0 -- -- 84
2019-08-05 05:00:00 16.3 7 Este 20 Este 0 -- -- 83
2019-08-05 04:00:00 16.8 8 Nordeste 21 Este 0 -- -- 80
2019-08-05 03:00:00 17.6 10 Nordeste 25 Nordeste 0 -- -- 77
2019-08-05 02:00:00 18.2 8 Este 30 Este 0 -- -- 75
2019-08-05 01:00:00 20 12 Este 27 Este 0 -- -- 67
2019-08-05 00:00:00 24.2 9 Nordeste 22 Norte 0 -- -- 43
2019-08-04 23:00:00 21 4 Noroeste 9 Noroeste 0 -- -- 52
2019-08-04 22:00:00 25.8 6 Noroeste 17 Oeste 0 -- -- 32
2019-08-04 21:00:00 29.8 12 Oeste 27 Oeste 0 -- -- 25
2019-08-04 20:00:00 32.2 15 Oeste 28 Oeste 0 -- -- 26
2019-08-04 19:00:00 33.5 13 Oeste 25 Oeste 0 -- -- 24
2019-08-04 18:00:00 33.5 19 Oeste 30 Oeste 0 -- -- 27
2019-08-04 17:00:00 33.3 16 Sudoeste 31 Oeste 0 -- -- 27
2019-08-04 16:00:00 33.1 17 Oeste 31 Oeste 0 -- -- 26
2019-08-04 15:00:00 31.5 12 Oeste 23 Oeste 0 -- -- 31
2019-08-04 14:00:00 30.2 8 Oeste 19 Oeste 0 -- -- 35
2019-08-04 13:00:00 28 6 Norte 14 Nordeste 0 -- -- 43
2019-08-04 12:00:00 25.4 5 Norte 13 Norte 0 -- -- 50
2019-08-04 11:00:00 23.2 4 Nordeste 13 Norte 0 -- -- 56
2019-08-04 10:00:00 20.9 5 Nordeste 8 Norte 0 -- -- 61
2019-08-04 09:00:00 18.2 5 Nordeste 10 Este 0 -- -- 65
2019-08-04 08:00:00 15.2 4 Nordeste 6 Nordeste 0 -- -- 74
2019-08-04 07:00:00 15.1 3 Sudeste 10 Nordeste 0 -- -- 74
2019-08-04 06:00:00 17 6 Nordeste 12 Nordeste 0 -- -- 66
2019-08-04 05:00:00 17.1 3 Nordeste 13 Este 0 -- -- 68
2019-08-04 04:00:00 18 6 Este 12 Este 0 -- -- 65
2019-08-04 03:00:00 19.2 5 Este 12 Nordeste 0 -- -- 65
2019-08-04 02:00:00 20.8 8 Nordeste 17 Este 0 -- -- 62
2019-08-04 01:00:00 22.4 6 Nordeste 14 Norte 0 -- -- 60
2019-08-04 00:00:00 24.9 8 Nordeste 24 Noroeste 0 -- -- 39
2019-08-03 23:00:00 26.5 10 Noroeste 22 Noroeste 0 -- -- 38
2019-08-03 22:00:00 28.1 14 Noroeste 19 Noroeste 0 -- -- 31
2019-08-03 21:00:00 30.8 8 Oeste 17 Oeste 0 -- -- 25
2019-08-03 20:00:00 33.9 6 Oeste 24 Oeste 0 -- -- 21
2019-08-03 19:00:00 34.5 11 Oeste 18 Noroeste 0 -- -- 21
2019-08-03 18:00:00 34.7 8 Oeste 25 Oeste 0 -- -- 21
2019-08-03 17:00:00 34.4 8 Noroeste 26 Noroeste 0 -- -- 21
2019-08-03 16:00:00 34.2 7 Noroeste 20 Oeste 0 -- -- 24
2019-08-03 15:00:00 33.2 10 Oeste 18 Oeste 0 -- -- 24
2019-08-03 14:00:00 31.9 7 Noroeste 14 Noroeste 0 -- -- 28
2019-08-03 13:00:00 29.1 4 Norte 12 Nordeste 0 -- -- 36
2019-08-03 12:00:00 27.3 5 Nordeste 10 Noroeste 0 -- -- 39
2019-08-03 11:00:00 24.5 6 Nordeste 17 Este 0 -- -- 45
2019-08-03 10:00:00 21.3 10 Nordeste 21 Este 0 -- -- 53
2019-08-03 09:00:00 18.1 10 Nordeste 17 Este 0 -- -- 64
2019-08-03 08:00:00 15.7 8 Nordeste 24 Este 0 -- -- 74
2019-08-03 07:00:00 16.5 16 Nordeste 29 Nordeste 0 -- -- 71
2019-08-03 06:00:00 16.6 17 Nordeste 25 Nordeste 0 -- -- 73
2019-08-03 05:00:00 17.1 17 Nordeste 23 Nordeste 0 -- -- 72
2019-08-03 04:00:00 18.2 9 Nordeste 19 Norte 0 -- -- 70
2019-08-03 03:00:00 18.7 4 Norte 15 Nordeste 0 -- -- 70
2019-08-03 02:00:00 20.1 4 Norte 10 Norte 0 -- -- 65
2019-08-03 01:00:00 21.7 5 Nordeste 25 Este 0 -- -- 58
2019-08-03 00:00:00 23.5 12 Este 25 Este 0 -- -- 51
2019-08-02 23:00:00 23.5 6 Nordeste 10 Este 0 -- -- 37
2019-08-02 22:00:00 26.8 5 Nordeste 14 Nordeste 0 -- -- 31
2019-08-02 21:00:00 30.4 5 Nordeste 12 Nordeste 0 -- -- 27
2019-08-02 20:00:00 32.4 5 Norte 15 Noroeste 0 -- -- 23
2019-08-02 19:00:00 32.9 8 Oeste 18 Nordeste 0 -- -- 23
2019-08-02 18:00:00 32.8 8 Norte 23 Norte 0 -- -- 24
2019-08-02 17:00:00 33.2 11 Oeste 23 Noroeste 0 -- -- 24
2019-08-02 16:00:00 32 9 Norte 26 Oeste 0 -- -- 25
2019-08-02 15:00:00 31.1 7 Sudoeste 21 Oeste 0 -- -- 28
2019-08-02 14:00:00 29.2 7 Este 15 Este 0 -- -- 36
2019-08-02 13:00:00 26.7 8 Nordeste 18 Este 0 -- -- 47
2019-08-02 12:00:00 23.9 8 Este 21 Este 0 -- -- 54
2019-08-02 11:00:00 20.7 12 Este 21 Nordeste 0 -- -- 63
2019-08-02 10:00:00 18.3 12 Este 24 Este 0 -- -- 71
2019-08-02 09:00:00 15.7 14 Este 26 Este 0 -- -- 81
2019-08-02 08:00:00 13.5 14 Nordeste 26 Nordeste 0 -- -- 89
2019-08-02 07:00:00 13.2 10 Este 18 Este 0 -- -- 88
2019-08-02 06:00:00 13.6 9 Nordeste 15 Este 0 -- -- 86
2019-08-02 05:00:00 14.2 5 Nordeste 20 Nordeste 0 -- -- 84
2019-08-02 04:00:00 14.8 10 Nordeste 25 Este 0 -- -- 81
2019-08-02 03:00:00 15.3 12 Nordeste 27 Nordeste 0 -- -- 79
2019-08-02 02:00:00 15.9 13 Nordeste 24 Este 0 -- -- 78
2019-08-02 01:00:00 16.7 8 Nordeste 21 Nordeste 0 -- -- 75
2019-08-02 00:00:00 18.1 7 Nordeste 27 Este 0 -- -- 72
2019-08-01 23:00:00 19.7 14 Este 42 Este 0 -- -- 68
2019-08-01 22:00:00 23 25 Este 41 Este 0 -- -- 58
2019-08-01 21:00:00 29.3 0 Calma 6 Noroeste 0 -- -- 30
2019-08-01 20:00:00 29.7 6 Oeste 14 Oeste 0 -- -- 25
2019-08-01 19:00:00 30.9 8 Oeste 27 Noroeste 0 -- -- 22
2019-08-01 18:00:00 31.1 11 Noroeste 22 Oeste 0 -- -- 23
2019-08-01 17:00:00 30.8 13 Noroeste 25 Noroeste 0 -- -- 27
2019-08-01 16:00:00 29.9 10 Noroeste 25 Oeste 0 -- -- 29
2019-08-01 15:00:00 29 11 Noroeste 19 Noroeste 0 -- -- 34
2019-08-01 14:00:00 26.9 7 Sur 15 Nordeste 0 -- -- 45
2019-08-01 13:00:00 24.7 5 Norte 15 Norte 0 -- -- 51
2019-08-01 12:00:00 22.8 6 Norte 17 Nordeste 0 -- -- 57
2019-08-01 11:00:00 21 9 Nordeste 18 Nordeste 0 -- -- 62
2019-08-01 10:00:00 18.6 11 Nordeste 22 Nordeste 0 -- -- 70
2019-08-01 09:00:00 16.2 12 Este 22 Este 0 -- -- 77
2019-08-01 08:00:00 14.1 7 Nordeste 21 Este 0 -- -- 84
2019-08-01 07:00:00 13.7 10 Este 22 Este 0 -- -- 84
2019-08-01 06:00:00 14.2 10 Este 25 Nordeste 0 -- -- 81
2019-08-01 05:00:00 14.9 14 Nordeste 25 Este 0 -- -- 77
2019-08-01 04:00:00 15.5 14 Nordeste 24 Nordeste 0 -- -- 75
2019-08-01 03:00:00 16 12 Nordeste 25 Este 0 -- -- 73
2019-08-01 02:00:00 16.9 12 Nordeste 25 Nordeste 0 -- -- 70
2019-08-01 01:00:00 18.2 15 Nordeste 29 Nordeste 0 -- -- 65
2019-08-01 00:00:00 19.5 17 Este 38 Este 0 -- -- 59
2019-07-31 23:00:00 21 15 Nordeste 32 Este 0 -- -- 54
2019-07-31 22:00:00 22.6 15 Este 35 Este 0 -- -- 47
2019-07-31 21:00:00 24.7 15 Este 32 Este 0 -- -- 39
2019-07-31 20:00:00 26.7 9 Nordeste 24 Este 0 -- -- 32
2019-07-31 19:00:00 28.1 11 Nordeste 23 Nordeste 0 -- -- 31
2019-07-31 18:00:00 27.6 11 Nordeste 25 Norte 0 -- -- 32
2019-07-31 17:00:00 27.6 10 Nordeste 21 Este 0 -- -- 32
2019-07-31 16:00:00 27.2 11 Nordeste 23 Este 0 -- -- 32
2019-07-31 15:00:00 25.4 14 Este 29 Este 0 -- -- 37
2019-07-31 14:00:00 23.5 14 Nordeste 31 Este 0 -- -- 40
2019-07-31 13:00:00 21.9 15 Este 29 Este 0 -- -- 43
2019-07-31 12:00:00 19.8 15 Nordeste 30 Nordeste 0 -- -- 49
2019-07-31 11:00:00 17.2 18 Este 33 Nordeste 0 -- -- 57
2019-07-31 10:00:00 14.8 19 Este 37 Nordeste 0 -- -- 66
2019-07-31 09:00:00 12.7 22 Este 39 Este 0 -- -- 77
2019-07-31 08:00:00 11 8 Nordeste 19 Nordeste 0 -- -- 84
2019-07-31 07:00:00 10.8 10 Nordeste 28 Nordeste 0 -- -- 84
2019-07-31 06:00:00 11.3 13 Nordeste 28 Nordeste 0 -- -- 82
2019-07-31 05:00:00 11.6 13 Nordeste 28 Este 0 -- -- 81
2019-07-31 04:00:00 12 16 Nordeste 36 Este 0 -- -- 79
2019-07-31 03:00:00 12.3 17 Nordeste 32 Nordeste 0 -- -- 77
2019-07-31 02:00:00 12.9 16 Este 33 Este 0 -- -- 74
2019-07-31 01:00:00 13.5 25 Este 51 Este 0 -- -- 70
2019-07-31 00:00:00 14.9 21 Este 44 Nordeste 0 -- -- 64
2019-07-30 23:00:00 17 21 Este 37 Este 0 -- -- 57
2019-07-30 22:00:00 20.6 7 Este 13 Este 0 -- -- 35
2019-07-30 21:00:00 23.3 6 Nordeste 19 Nordeste 0 -- -- 29
2019-07-30 20:00:00 24.5 7 Nordeste 18 Este 0 -- -- 29
2019-07-30 19:00:00 24.7 10 Nordeste 19 Este 0 -- -- 27
2019-07-30 18:00:00 25.4 7 Nordeste 19 Nordeste 0 -- -- 27
2019-07-30 17:00:00 25.3 9 Norte 25 Norte 0 -- -- 28
2019-07-30 16:00:00 24.4 12 Nordeste 24 Este 0 -- -- 31
2019-07-30 15:00:00 23.6 12 Norte 26 Norte 0 -- -- 32
2019-07-30 14:00:00 22.1 7 Nordeste 21 Nordeste 0 -- -- 39
2019-07-30 13:00:00 20.9 8 Nordeste 20 Este 0 -- -- 43
2019-07-30 12:00:00 19.4 8 Este 18 Nordeste 0 -- -- 49
2019-07-30 11:00:00 17.8 10 Sudeste 20 Este 0 -- -- 58
2019-07-30 10:00:00 15.2 6 Este 15 Norte 0 -- -- 62
2019-07-30 09:00:00 12.8 5 Norte 14 Noroeste 0 -- -- 69
2019-07-30 08:00:00 8.1 3 Oeste 8 Oeste 0 -- -- 85
2019-07-30 07:00:00 7.2 4 Oeste 11 Sur 0 -- -- 81
2019-07-30 06:00:00 8.5 4 Sur 9 Noroeste 0 -- -- 78
2019-07-30 05:00:00 10.9 2 Sudeste 16 Nordeste 0 -- -- 71
2019-07-30 04:00:00 10.3 5 Noroeste 12 Noroeste 0 -- -- 72
2019-07-30 03:00:00 12.2 4 Sudoeste 19 Norte 0 -- -- 69
2019-07-30 02:00:00 13.9 12 Noroeste 21 Noroeste 0 -- -- 63
2019-07-30 01:00:00 14.9 11 Noroeste 26 Noroeste 0 -- -- 59
2019-07-30 00:00:00 16.3 11 Noroeste 18 Noroeste 0 -- -- 53
2019-07-29 23:00:00 17.8 13 Noroeste 26 Norte 0 -- -- 44
2019-07-29 22:00:00 19.4 19 Norte 33 Noroeste 0 -- -- 41
2019-07-29 21:00:00 22.6 16 Norte 31 Norte 0 -- -- 35
2019-07-29 20:00:00 24.9 15 Noroeste 39 Oeste 0 -- -- 31
2019-07-29 19:00:00 26.2 20 Oeste 38 Oeste 0 -- -- 28
2019-07-29 18:00:00 26.6 24 Oeste 43 Oeste 0 -- -- 25
2019-07-29 17:00:00 27.2 28 Oeste 46 Oeste 0 -- -- 21
2019-07-29 16:00:00 27 24 Oeste 38 Oeste 0 -- -- 24
2019-07-29 15:00:00 26.3 22 Oeste 39 Oeste 0 -- -- 32
2019-07-29 14:00:00 25.1 22 Oeste 40 Oeste 0 -- -- 34
2019-07-29 13:00:00 23.9 21 Oeste 41 Oeste 0 -- -- 44
2019-07-29 12:00:00 23 23 Oeste 36 Oeste 0 -- -- 48
2019-07-29 11:00:00 21.1 21 Oeste 35 Oeste 0 -- -- 54
2019-07-29 10:00:00 19.1 12 Sudoeste 23 Oeste 0 -- -- 51
2019-07-29 09:00:00 16.4 13 Oeste 25 Sudoeste 0 -- -- 54
2019-07-29 08:00:00 12.7 8 Sudoeste 16 Sudoeste 0 -- -- 60
2019-07-29 07:00:00 11.4 10 Oeste 15 Sudoeste 0 -- -- 62
2019-07-29 06:00:00 12.4 8 Oeste 13 Oeste 0 -- -- 66
2019-07-29 05:00:00 12.6 5 Sudoeste 7 Oeste 0 -- -- 68
2019-07-29 04:00:00 12.6 3 Oeste 8 Sudoeste 0 -- -- 67
2019-07-29 03:00:00 12 3 Noroeste 5 Oeste 0 -- -- 65
2019-07-29 02:00:00 12.4 0 Calma 6 Noroeste 0 -- -- 65
2019-07-29 01:00:00 13.5 0 Calma 4 Sur 0 -- -- 62
2019-07-29 00:00:00 15.1 2 Sur 6 Oeste 0 -- -- 57
2019-07-28 23:00:00 16.9 4 Sur 8 Sur 0 -- -- 48
2019-07-28 22:00:00 20.6 5 Sur 9 Sur 0 -- -- 42
2019-07-28 21:00:00 25.9 4 Sudoeste 14 Sudoeste 0 -- -- 29
2019-07-28 20:00:00 27.1 7 Noroeste 18 Oeste 0 -- -- 26
2019-07-28 19:00:00 27.2 5 Oeste 18 Sudoeste 0 -- -- 28
2019-07-28 18:00:00 27 6 Noroeste 17 Oeste 0 -- -- 27
2019-07-28 17:00:00 26.5 12 Noroeste 33 Oeste 0 -- -- 27
2019-07-28 16:00:00 25.3 8 Oeste 21 Noroeste 0 -- -- 32
2019-07-28 15:00:00 24.3 9 Sudoeste 19 Oeste 0 -- -- 33
2019-07-28 14:00:00 23.1 5 Noroeste 15 Noroeste 0 -- -- 39
2019-07-28 13:00:00 21.5 5 Este 18 Este 0 -- -- 44
2019-07-28 12:00:00 19.7 9 Este 20 Este 0 -- -- 50
2019-07-28 11:00:00 17.7 13 Este 23 Este 0 -- -- 57
2019-07-28 10:00:00 15.7 12 Este 27 Este 0 -- -- 66
2019-07-28 09:00:00 13.4 6 Nordeste 10 Este 0 -- -- 79
2019-07-28 08:00:00 9.5 3 Nordeste 7 Este 0 -- -- 91
2019-07-28 07:00:00 8.4 5 Este 8 Nordeste 0 -- -- 90
2019-07-28 06:00:00 9 3 Este 8 Nordeste 0 -- -- 88
2019-07-28 05:00:00 9.8 4 Nordeste 10 Nordeste 0 -- -- 86
2019-07-28 04:00:00 9.9 3 Este 7 Norte 0 -- -- 83
2019-07-28 03:00:00 11.4 3 Este 13 Este 0 -- -- 80
2019-07-28 02:00:00 13 7 Este 19 Este 0 -- -- 76
2019-07-28 01:00:00 13.7 8 Este 21 Sudeste 0 -- -- 73
2019-07-28 00:00:00 14.7 13 Este 24 Este 0 -- -- 72
2019-07-27 23:00:00 15.4 12 Este 24 Este 0 -- -- 70
2019-07-26 12:00:00 -- -- -- -- -- -- -- -- --
2019-07-26 11:00:00 20 12 Noroeste 20 Oeste 0 -- -- 56
2019-07-26 10:00:00 19.2 14 Noroeste 21 Oeste 0 -- -- 57
2019-07-26 09:00:00 17.1 11 Noroeste 21 Noroeste 0 -- -- 66
2019-07-26 08:00:00 17.3 15 Noroeste 22 Noroeste 0 -- -- 69
2019-07-26 07:00:00 17.8 12 Noroeste 19 Noroeste 0 -- -- 73
2019-07-26 06:00:00 17.7 13 Noroeste 19 Noroeste 0 -- -- 77
2019-07-26 05:00:00 18.1 8 Oeste 18 Noroeste 0 -- -- 79
2019-07-26 04:00:00 18.8 9 Noroeste 20 Norte 0 -- -- 77
2019-07-26 03:00:00 19.6 13 Noroeste 21 Noroeste 0 -- -- 76
2019-07-26 02:00:00 21.1 13 Noroeste 17 Noroeste 0 -- -- 66
2019-07-26 01:00:00 21.8 13 Noroeste 25 Noroeste 0 -- -- 62
2019-07-26 00:00:00 23.5 8 Noroeste 15 Noroeste 0 -- -- 53